sensor_id;sensor_type;location;lat;lon;timestamp;temperature;humidity
20288;DHT22;10303;51.960;8.372;2023-01-26T00:01:15;3.10;99.90
20288;DHT22;10303;51.960;8.372;2023-01-26T00:03:46;3.00;99.90
20288;DHT22;10303;51.960;8.372;2023-01-26T00:06:15;3.10;99.90
20288;DHT22;10303;51.960;8.372;2023-01-26T00:08:47;3.10;99.90
20288;DHT22;10303;51.960;8.372;2023-01-26T00:11:21;3.20;99.90
20288;DHT22;10303;51.960;8.372;2023-01-26T00:13:53;3.10;99.90
20288;DHT22;10303;51.960;8.372;2023-01-26T00:16:20;3.10;99.90
20288;DHT22;10303;51.960;8.372;2023-01-26T00:18:46;3.10;99.90
20288;DHT22;10303;51.960;8.372;2023-01-26T00:21:14;3.10;99.90
20288;DHT22;10303;51.960;8.372;2023-01-26T00:23:43;3.10;99.90
20288;DHT22;10303;51.960;8.372;2023-01-26T00:26:12;3.10;99.90
20288;DHT22;10303;51.960;8.372;2023-01-26T00:28:40;3.10;99.90
20288;DHT22;10303;51.960;8.372;2023-01-26T00:31:14;3.20;99.90
20288;DHT22;10303;51.960;8.372;2023-01-26T00:33:42;3.10;99.90
20288;DHT22;10303;51.960;8.372;2023-01-26T00:36:09;3.20;99.90
20288;DHT22;10303;51.960;8.372;2023-01-26T00:38:36;3.00;99.90
20288;DHT22;10303;51.960;8.372;2023-01-26T00:41:02;3.10;99.90
20288;DHT22;10303;51.960;8.372;2023-01-26T00:43:28;3.00;99.90
20288;DHT22;10303;51.960;8.372;2023-01-26T00:45:54;3.10;99.90
20288;DHT22;10303;51.960;8.372;2023-01-26T00:48:20;3.10;99.90
20288;DHT22;10303;51.960;8.372;2023-01-26T00:50:46;3.20;99.90
20288;DHT22;10303;51.960;8.372;2023-01-26T00:53:12;3.60;99.90
20288;DHT22;10303;51.960;8.372;2023-01-26T00:55:38;3.20;99.90
20288;DHT22;10303;51.960;8.372;2023-01-26T00:58:06;3.20;99.90
20288;DHT22;10303;51.960;8.372;2023-01-26T01:00:34;3.10;99.90
20288;DHT22;10303;51.960;8.372;2023-01-26T01:03:03;3.10;99.90
20288;DHT22;10303;51.960;8.372;2023-01-26T01:05:31;3.10;99.90
20288;DHT22;10303;51.960;8.372;2023-01-26T01:07:57;3.10;99.90
20288;DHT22;10303;51.960;8.372;2023-01-26T01:10:23;3.10;99.90
20288;DHT22;10303;51.960;8.372;2023-01-26T01:12:52;3.10;99.90
20288;DHT22;10303;51.960;8.372;2023-01-26T01:15:18;3.10;99.90
20288;DHT22;10303;51.960;8.372;2023-01-26T01:17:44;3.10;99.90
20288;DHT22;10303;51.960;8.372;2023-01-26T01:20:10;3.10;99.90
20288;DHT22;10303;51.960;8.372;2023-01-26T01:22:37;3.10;99.90
20288;DHT22;10303;51.960;8.372;2023-01-26T01:25:03;3.10;99.90
20288;DHT22;10303;51.960;8.372;2023-01-26T01:27:29;3.10;99.90
20288;DHT22;10303;51.960;8.372;2023-01-26T01:29:55;3.10;99.90
20288;DHT22;10303;51.960;8.372;2023-01-26T01:32:21;3.10;99.90
20288;DHT22;10303;51.960;8.372;2023-01-26T01:34:48;3.10;99.90
20288;DHT22;10303;51.960;8.372;2023-01-26T01:37:16;3.10;99.90
20288;DHT22;10303;51.960;8.372;2023-01-26T01:39:42;3.00;99.90
20288;DHT22;10303;51.960;8.372;2023-01-26T01:42:08;3.10;99.90
20288;DHT22;10303;51.960;8.372;2023-01-26T01:44:35;2.90;99.90
20288;DHT22;10303;51.960;8.372;2023-01-26T01:49:59;3.00;99.90
20288;DHT22;10303;51.960;8.372;2023-01-26T01:52:30;3.00;99.90
20288;DHT22;10303;51.960;8.372;2023-01-26T01:55:02;2.80;99.90
20288;DHT22;10303;51.960;8.372;2023-01-26T01:57:37;2.60;99.90
20288;DHT22;10303;51.960;8.372;2023-01-26T02:02:41;2.70;99.90
20288;DHT22;10303;51.960;8.372;2023-01-26T02:05:20;2.80;99.90
20288;DHT22;10303;51.960;8.372;2023-01-26T02:07:55;2.90;99.90
20288;DHT22;10303;51.960;8.372;2023-01-26T02:10:22;2.90;99.90
20288;DHT22;10303;51.960;8.372;2023-01-26T02:12:52;2.90;99.90
20288;DHT22;10303;51.960;8.372;2023-01-26T02:15:21;2.90;99.90
20288;DHT22;10303;51.960;8.372;2023-01-26T02:17:50;2.90;99.90
20288;DHT22;10303;51.960;8.372;2023-01-26T02:20:25;2.60;99.90
20288;DHT22;10303;51.960;8.372;2023-01-26T02:26:20;2.70;99.90
20288;DHT22;10303;51.960;8.372;2023-01-26T02:28:52;2.60;99.90
20288;DHT22;10303;51.960;8.372;2023-01-26T02:31:18;2.70;99.90
20288;DHT22;10303;51.960;8.372;2023-01-26T02:33:47;2.50;99.90
20288;DHT22;10303;51.960;8.372;2023-01-26T02:36:28;2.40;99.90
20288;DHT22;10303;51.960;8.372;2023-01-26T02:42:08;2.50;99.90
20288;DHT22;10303;51.960;8.372;2023-01-26T02:44:53;2.60;99.90
20288;DHT22;10303;51.960;8.372;2023-01-26T02:47:19;2.60;99.90
20288;DHT22;10303;51.960;8.372;2023-01-26T02:49:46;2.60;99.90
20288;DHT22;10303;51.960;8.372;2023-01-26T02:52:14;2.60;99.90
20288;DHT22;10303;51.960;8.372;2023-01-26T02:54:51;2.70;99.90
20288;DHT22;10303;51.960;8.372;2023-01-26T02:57:37;2.70;99.90
20288;DHT22;10303;51.960;8.372;2023-01-26T03:00:08;2.80;99.90
20288;DHT22;10303;51.960;8.372;2023-01-26T03:02:42;2.60;99.90
20288;DHT22;10303;51.960;8.372;2023-01-26T03:05:09;2.60;99.90
20288;DHT22;10303;51.960;8.372;2023-01-26T03:07:35;2.70;99.90
20288;DHT22;10303;51.960;8.372;2023-01-26T03:10:02;2.70;99.90
20288;DHT22;10303;51.960;8.372;2023-01-26T03:12:28;2.70;99.90
20288;DHT22;10303;51.960;8.372;2023-01-26T03:14:55;2.70;99.90
20288;DHT22;10303;51.960;8.372;2023-01-26T03:17:39;2.60;99.90
20288;DHT22;10303;51.960;8.372;2023-01-26T03:20:06;2.50;99.90
20288;DHT22;10303;51.960;8.372;2023-01-26T03:22:51;2.40;99.90
20288;DHT22;10303;51.960;8.372;2023-01-26T03:25:36;2.80;99.90
20288;DHT22;10303;51.960;8.372;2023-01-26T03:28:21;2.40;99.90
20288;DHT22;10303;51.960;8.372;2023-01-26T03:30:50;2.50;99.90
20288;DHT22;10303;51.960;8.372;2023-01-26T03:33:18;2.40;99.90
20288;DHT22;10303;51.960;8.372;2023-01-26T03:35:45;2.60;99.90
20288;DHT22;10303;51.960;8.372;2023-01-26T03:38:12;2.40;99.90
20288;DHT22;10303;51.960;8.372;2023-01-26T03:40:45;2.50;99.90
20288;DHT22;10303;51.960;8.372;2023-01-26T03:43:30;2.50;99.90
20288;DHT22;10303;51.960;8.372;2023-01-26T03:46:15;2.60;99.90
20288;DHT22;10303;51.960;8.372;2023-01-26T03:48:59;2.70;99.90
20288;DHT22;10303;51.960;8.372;2023-01-26T03:51:44;2.80;99.90
20288;DHT22;10303;51.960;8.372;2023-01-26T03:54:29;2.70;99.90
20288;DHT22;10303;51.960;8.372;2023-01-26T03:57:13;2.70;99.90
20288;DHT22;10303;51.960;8.372;2023-01-26T03:59:39;2.80;99.90
20288;DHT22;10303;51.960;8.372;2023-01-26T04:02:11;2.80;99.90
20288;DHT22;10303;51.960;8.372;2023-01-26T04:04:56;2.70;99.90
20288;DHT22;10303;51.960;8.372;2023-01-26T04:07:45;2.60;99.90
20288;DHT22;10303;51.960;8.372;2023-01-26T04:10:30;2.50;99.90
20288;DHT22;10303;51.960;8.372;2023-01-26T04:12:56;2.70;99.90
20288;DHT22;10303;51.960;8.372;2023-01-26T04:15:47;2.70;99.90
20288;DHT22;10303;51.960;8.372;2023-01-26T04:18:32;2.60;99.90
20288;DHT22;10303;51.960;8.372;2023-01-26T04:21:16;2.50;99.90
20288;DHT22;10303;51.960;8.372;2023-01-26T04:23:52;2.40;99.90
20288;DHT22;10303;51.960;8.372;2023-01-26T04:26:29;2.60;99.90
20288;DHT22;10303;51.960;8.372;2023-01-26T04:29:04;2.50;99.90
20288;DHT22;10303;51.960;8.372;2023-01-26T04:31:33;2.60;99.90
20288;DHT22;10303;51.960;8.372;2023-01-26T04:34:00;2.50;99.90
20288;DHT22;10303;51.960;8.372;2023-01-26T04:36:27;2.50;99.90
20288;DHT22;10303;51.960;8.372;2023-01-26T04:38:54;2.50;99.90
20288;DHT22;10303;51.960;8.372;2023-01-26T04:41:21;2.60;99.90
20288;DHT22;10303;51.960;8.372;2023-01-26T04:43:55;2.70;99.90
20288;DHT22;10303;51.960;8.372;2023-01-26T04:46:22;2.80;99.90
20288;DHT22;10303;51.960;8.372;2023-01-26T04:48:49;2.80;99.90
20288;DHT22;10303;51.960;8.372;2023-01-26T04:51:20;2.90;99.90
20288;DHT22;10303;51.960;8.372;2023-01-26T04:53:48;2.80;99.90
20288;DHT22;10303;51.960;8.372;2023-01-26T04:56:28;2.80;99.90
20288;DHT22;10303;51.960;8.372;2023-01-26T04:59:01;2.70;99.90
20288;DHT22;10303;51.960;8.372;2023-01-26T05:01:30;3.10;99.90
20288;DHT22;10303;51.960;8.372;2023-01-26T05:04:01;2.60;99.90
20288;DHT22;10303;51.960;8.372;2023-01-26T05:06:30;2.50;99.90
20288;DHT22;10303;51.960;8.372;2023-01-26T05:08:57;2.50;99.90
20288;DHT22;10303;51.960;8.372;2023-01-26T05:11:24;2.50;99.90
20288;DHT22;10303;51.960;8.372;2023-01-26T05:14:08;2.50;99.90
20288;DHT22;10303;51.960;8.372;2023-01-26T05:17:09;2.70;99.90
20288;DHT22;10303;51.960;8.372;2023-01-26T05:20:02;2.80;99.90
20288;DHT22;10303;51.960;8.372;2023-01-26T05:22:31;2.80;99.90
20288;DHT22;10303;51.960;8.372;2023-01-26T05:25:15;3.20;99.90
20288;DHT22;10303;51.960;8.372;2023-01-26T05:28:04;2.80;99.90
20288;DHT22;10303;51.960;8.372;2023-01-26T05:30:30;2.60;99.90
20288;DHT22;10303;51.960;8.372;2023-01-26T05:33:03;2.90;99.90
20288;DHT22;10303;51.960;8.372;2023-01-26T05:35:32;2.70;99.90
20288;DHT22;10303;51.960;8.372;2023-01-26T05:37:59;2.60;99.90
20288;DHT22;10303;51.960;8.372;2023-01-26T05:40:30;3.00;99.90
20288;DHT22;10303;51.960;8.372;2023-01-26T05:42:56;2.60;99.90
20288;DHT22;10303;51.960;8.372;2023-01-26T05:45:51;2.60;99.90
20288;DHT22;10303;51.960;8.372;2023-01-26T05:48:19;2.60;99.90
20288;DHT22;10303;51.960;8.372;2023-01-26T05:50:49;2.50;99.90
20288;DHT22;10303;51.960;8.372;2023-01-26T05:53:18;2.50;99.90
20288;DHT22;10303;51.960;8.372;2023-01-26T05:55:45;2.50;99.90
20288;DHT22;10303;51.960;8.372;2023-01-26T05:58:11;2.50;99.90
20288;DHT22;10303;51.960;8.372;2023-01-26T06:00:39;2.40;99.90
20288;DHT22;10303;51.960;8.372;2023-01-26T06:03:10;2.40;99.90
20288;DHT22;10303;51.960;8.372;2023-01-26T06:05:36;2.40;99.90
20288;DHT22;10303;51.960;8.372;2023-01-26T06:08:11;2.50;99.90
20288;DHT22;10303;51.960;8.372;2023-01-26T06:10:51;2.50;99.90
20288;DHT22;10303;51.960;8.372;2023-01-26T06:13:36;2.60;99.90
20288;DHT22;10303;51.960;8.372;2023-01-26T06:16:15;2.50;99.90
20288;DHT22;10303;51.960;8.372;2023-01-26T06:18:41;2.50;99.90
20288;DHT22;10303;51.960;8.372;2023-01-26T06:21:07;2.80;99.90
20288;DHT22;10303;51.960;8.372;2023-01-26T06:23:33;2.50;99.90
20288;DHT22;10303;51.960;8.372;2023-01-26T06:26:01;2.60;99.90
20288;DHT22;10303;51.960;8.372;2023-01-26T06:28:29;2.60;99.90
20288;DHT22;10303;51.960;8.372;2023-01-26T06:31:00;3.10;99.90
20288;DHT22;10303;51.960;8.372;2023-01-26T06:33:28;2.80;99.90
20288;DHT22;10303;51.960;8.372;2023-01-26T06:35:55;2.90;99.90
20288;DHT22;10303;51.960;8.372;2023-01-26T06:38:25;3.10;99.90
20288;DHT22;10303;51.960;8.372;2023-01-26T06:40:52;3.00;99.90
20288;DHT22;10303;51.960;8.372;2023-01-26T06:43:18;3.20;99.90
20288;DHT22;10303;51.960;8.372;2023-01-26T06:45:45;3.10;99.90
20288;DHT22;10303;51.960;8.372;2023-01-26T06:48:14;3.00;99.90
20288;DHT22;10303;51.960;8.372;2023-01-26T06:50:39;3.10;99.90
20288;DHT22;10303;51.960;8.372;2023-01-26T06:53:33;3.00;99.90
20288;DHT22;10303;51.960;8.372;2023-01-26T06:56:22;2.90;99.90
20288;DHT22;10303;51.960;8.372;2023-01-26T06:58:57;3.10;99.90
20288;DHT22;10303;51.960;8.372;2023-01-26T07:01:48;3.10;99.90
20288;DHT22;10303;51.960;8.372;2023-01-26T07:04:14;3.20;99.90
20288;DHT22;10303;51.960;8.372;2023-01-26T07:06:41;3.20;99.90
20288;DHT22;10303;51.960;8.372;2023-01-26T07:09:08;3.30;99.90
20288;DHT22;10303;51.960;8.372;2023-01-26T07:11:35;3.30;99.90
20288;DHT22;10303;51.960;8.372;2023-01-26T07:14:01;3.40;99.90
20288;DHT22;10303;51.960;8.372;2023-01-26T07:16:27;3.30;99.90
20288;DHT22;10303;51.960;8.372;2023-01-26T07:18:53;3.60;99.90
20288;DHT22;10303;51.960;8.372;2023-01-26T07:21:20;3.40;99.90
20288;DHT22;10303;51.960;8.372;2023-01-26T07:23:47;3.50;99.90
20288;DHT22;10303;51.960;8.372;2023-01-26T07:26:15;3.50;99.90
20288;DHT22;10303;51.960;8.372;2023-01-26T07:28:41;3.50;99.90
20288;DHT22;10303;51.960;8.372;2023-01-26T07:31:08;3.60;99.90
20288;DHT22;10303;51.960;8.372;2023-01-26T07:33:35;3.50;99.90
20288;DHT22;10303;51.960;8.372;2023-01-26T07:36:01;3.50;99.90
20288;DHT22;10303;51.960;8.372;2023-01-26T07:38:29;3.60;99.90
20288;DHT22;10303;51.960;8.372;2023-01-26T07:40:56;3.70;99.90
20288;DHT22;10303;51.960;8.372;2023-01-26T07:43:22;3.50;99.90
20288;DHT22;10303;51.960;8.372;2023-01-26T07:45:52;3.60;99.90
20288;DHT22;10303;51.960;8.372;2023-01-26T07:48:20;3.60;99.90
20288;DHT22;10303;51.960;8.372;2023-01-26T07:50:48;3.60;99.90
20288;DHT22;10303;51.960;8.372;2023-01-26T07:53:16;3.80;99.90
20288;DHT22;10303;51.960;8.372;2023-01-26T07:55:47;3.60;99.90
20288;DHT22;10303;51.960;8.372;2023-01-26T07:58:16;3.50;99.90
20288;DHT22;10303;51.960;8.372;2023-01-26T08:00:43;3.30;99.90
20288;DHT22;10303;51.960;8.372;2023-01-26T08:03:12;3.40;99.90
20288;DHT22;10303;51.960;8.372;2023-01-26T08:05:38;3.40;99.90
20288;DHT22;10303;51.960;8.372;2023-01-26T08:08:04;3.30;99.90
20288;DHT22;10303;51.960;8.372;2023-01-26T08:10:30;3.20;99.90
20288;DHT22;10303;51.960;8.372;2023-01-26T08:12:58;3.10;99.90
20288;DHT22;10303;51.960;8.372;2023-01-26T08:15:26;3.40;99.90
20288;DHT22;10303;51.960;8.372;2023-01-26T08:17:53;3.40;99.90
20288;DHT22;10303;51.960;8.372;2023-01-26T08:20:19;3.20;99.90
20288;DHT22;10303;51.960;8.372;2023-01-26T08:22:45;3.20;99.90
20288;DHT22;10303;51.960;8.372;2023-01-26T08:25:12;3.30;99.90
20288;DHT22;10303;51.960;8.372;2023-01-26T08:27:38;3.40;99.90
20288;DHT22;10303;51.960;8.372;2023-01-26T08:30:04;3.40;99.90
20288;DHT22;10303;51.960;8.372;2023-01-26T08:32:31;3.30;99.90
20288;DHT22;10303;51.960;8.372;2023-01-26T08:34:57;3.30;99.90
20288;DHT22;10303;51.960;8.372;2023-01-26T08:37:23;3.00;99.90
20288;DHT22;10303;51.960;8.372;2023-01-26T08:39:49;3.10;99.90
20288;DHT22;10303;51.960;8.372;2023-01-26T08:42:15;3.00;99.90
20288;DHT22;10303;51.960;8.372;2023-01-26T08:44:40;2.90;99.90
20288;DHT22;10303;51.960;8.372;2023-01-26T08:47:06;2.70;99.90
20288;DHT22;10303;51.960;8.372;2023-01-26T08:49:32;3.30;99.90
20288;DHT22;10303;51.960;8.372;2023-01-26T08:51:58;2.90;99.90
20288;DHT22;10303;51.960;8.372;2023-01-26T08:54:24;3.10;99.90
20288;DHT22;10303;51.960;8.372;2023-01-26T08:56:50;3.10;99.90
20288;DHT22;10303;51.960;8.372;2023-01-26T08:59:16;3.20;99.90
20288;DHT22;10303;51.960;8.372;2023-01-26T09:01:42;3.30;99.90
20288;DHT22;10303;51.960;8.372;2023-01-26T09:04:08;3.40;99.90
20288;DHT22;10303;51.960;8.372;2023-01-26T09:06:34;3.40;99.90
20288;DHT22;10303;51.960;8.372;2023-01-26T09:08:59;3.50;99.90
20288;DHT22;10303;51.960;8.372;2023-01-26T09:11:25;3.60;99.90
20288;DHT22;10303;51.960;8.372;2023-01-26T09:13:51;3.60;99.90
20288;DHT22;10303;51.960;8.372;2023-01-26T09:16:23;3.60;99.90
20288;DHT22;10303;51.960;8.372;2023-01-26T09:18:51;3.70;99.90
20288;DHT22;10303;51.960;8.372;2023-01-26T09:21:18;3.60;99.90
20288;DHT22;10303;51.960;8.372;2023-01-26T09:23:46;3.60;99.90
20288;DHT22;10303;51.960;8.372;2023-01-26T09:26:12;3.60;99.90
20288;DHT22;10303;51.960;8.372;2023-01-26T09:28:38;3.80;99.90
20288;DHT22;10303;51.960;8.372;2023-01-26T09:31:05;3.70;99.90
20288;DHT22;10303;51.960;8.372;2023-01-26T09:33:33;3.80;99.90
20288;DHT22;10303;51.960;8.372;2023-01-26T09:36:07;4.00;99.90
20288;DHT22;10303;51.960;8.372;2023-01-26T09:38:34;3.90;99.90
20288;DHT22;10303;51.960;8.372;2023-01-26T09:43:42;3.90;99.90
20288;DHT22;10303;51.960;8.372;2023-01-26T09:49:20;3.80;99.90
20288;DHT22;10303;51.960;8.372;2023-01-26T09:52:14;3.90;99.90
20288;DHT22;10303;51.960;8.372;2023-01-26T09:54:51;4.00;99.90
20288;DHT22;10303;51.960;8.372;2023-01-26T09:57:27;4.20;99.90
20288;DHT22;10303;51.960;8.372;2023-01-26T10:00:05;4.10;99.90
20288;DHT22;10303;51.960;8.372;2023-01-26T10:03:02;4.10;99.90
20288;DHT22;10303;51.960;8.372;2023-01-26T10:05:58;4.10;99.90
20288;DHT22;10303;51.960;8.372;2023-01-26T10:08:50;4.10;99.90
20288;DHT22;10303;51.960;8.372;2023-01-26T10:14:08;4.10;99.90
20288;DHT22;10303;51.960;8.372;2023-01-26T10:16:45;4.10;99.90
20288;DHT22;10303;51.960;8.372;2023-01-26T10:19:22;4.10;99.90
20288;DHT22;10303;51.960;8.372;2023-01-26T10:22:04;3.90;99.90
20288;DHT22;10303;51.960;8.372;2023-01-26T10:24:47;3.60;99.90
20288;DHT22;10303;51.960;8.372;2023-01-26T10:27:15;3.70;99.90
20288;DHT22;10303;51.960;8.372;2023-01-26T10:29:41;3.60;99.90
20288;DHT22;10303;51.960;8.372;2023-01-26T10:32:16;3.70;99.90
20288;DHT22;10303;51.960;8.372;2023-01-26T10:34:44;4.00;99.90
20288;DHT22;10303;51.960;8.372;2023-01-26T10:37:22;3.90;99.90
20288;DHT22;10303;51.960;8.372;2023-01-26T10:39:57;4.00;99.90
20288;DHT22;10303;51.960;8.372;2023-01-26T10:42:30;3.90;99.90
20288;DHT22;10303;51.960;8.372;2023-01-26T10:44:58;3.90;99.90
20288;DHT22;10303;51.960;8.372;2023-01-26T10:47:27;3.80;99.90
20288;DHT22;10303;51.960;8.372;2023-01-26T10:50:29;3.60;99.90
20288;DHT22;10303;51.960;8.372;2023-01-26T10:53:01;3.60;99.90
20288;DHT22;10303;51.960;8.372;2023-01-26T10:55:29;3.80;99.90
20288;DHT22;10303;51.960;8.372;2023-01-26T10:57:57;3.80;99.90
20288;DHT22;10303;51.960;8.372;2023-01-26T11:00:30;3.90;99.90
20288;DHT22;10303;51.960;8.372;2023-01-26T11:03:17;3.90;99.90
20288;DHT22;10303;51.960;8.372;2023-01-26T11:05:44;3.90;99.90
20288;DHT22;10303;51.960;8.372;2023-01-26T11:08:36;3.90;99.90
20288;DHT22;10303;51.960;8.372;2023-01-26T11:11:04;4.00;99.90
20288;DHT22;10303;51.960;8.372;2023-01-26T11:13:35;4.10;99.90
20288;DHT22;10303;51.960;8.372;2023-01-26T11:16:10;4.20;99.90
20288;DHT22;10303;51.960;8.372;2023-01-26T11:24:25;4.10;99.90
20288;DHT22;10303;51.960;8.372;2023-01-26T11:33:25;3.90;99.90
20288;DHT22;10303;51.960;8.372;2023-01-26T11:36:05;3.50;99.90
20288;DHT22;10303;51.960;8.372;2023-01-26T11:45:27;3.70;99.90
20288;DHT22;10303;51.960;8.372;2023-01-26T11:48:10;3.50;99.90
20288;DHT22;10303;51.960;8.372;2023-01-26T11:54:04;3.90;99.90
20288;DHT22;10303;51.960;8.372;2023-01-26T11:59:33;3.70;99.90
20288;DHT22;10303;51.960;8.372;2023-01-26T12:02:29;3.30;99.90
20288;DHT22;10303;51.960;8.372;2023-01-26T12:05:02;3.40;99.90
20288;DHT22;10303;51.960;8.372;2023-01-26T12:13:45;3.60;99.90
20288;DHT22;10303;51.960;8.372;2023-01-26T12:19:27;3.70;99.90
20288;DHT22;10303;51.960;8.372;2023-01-26T12:22:30;3.90;99.90
20288;DHT22;10303;51.960;8.372;2023-01-26T12:25:32;3.80;99.90
20288;DHT22;10303;51.960;8.372;2023-01-26T12:28:36;3.90;99.90
20288;DHT22;10303;51.960;8.372;2023-01-26T12:31:31;3.90;99.90
20288;DHT22;10303;51.960;8.372;2023-01-26T12:34:00;3.90;99.90
20288;DHT22;10303;51.960;8.372;2023-01-26T12:36:44;3.90;99.90
20288;DHT22;10303;51.960;8.372;2023-01-26T12:42:22;3.80;99.90
20288;DHT22;10303;51.960;8.372;2023-01-26T12:45:13;3.90;99.90
20288;DHT22;10303;51.960;8.372;2023-01-26T12:48:10;4.40;99.90
20288;DHT22;10303;51.960;8.372;2023-01-26T12:50:46;4.20;99.90
20288;DHT22;10303;51.960;8.372;2023-01-26T12:53:27;4.20;99.90
20288;DHT22;10303;51.960;8.372;2023-01-26T12:56:22;4.20;99.90
20288;DHT22;10303;51.960;8.372;2023-01-26T12:59:06;4.30;99.90
20288;DHT22;10303;51.960;8.372;2023-01-26T13:01:44;4.30;99.90
20288;DHT22;10303;51.960;8.372;2023-01-26T13:04:12;4.30;99.90
20288;DHT22;10303;51.960;8.372;2023-01-26T13:06:40;4.40;99.90
20288;DHT22;10303;51.960;8.372;2023-01-26T13:09:21;4.40;99.90
20288;DHT22;10303;51.960;8.372;2023-01-26T13:11:56;4.30;99.90
20288;DHT22;10303;51.960;8.372;2023-01-26T13:14:31;4.30;99.90
20288;DHT22;10303;51.960;8.372;2023-01-26T13:27:55;4.50;99.90
20288;DHT22;10303;51.960;8.372;2023-01-26T13:33:10;4.80;99.90
20288;DHT22;10303;51.960;8.372;2023-01-26T13:35:40;4.60;99.90
20288;DHT22;10303;51.960;8.372;2023-01-26T13:38:26;5.00;99.90
20288;DHT22;10303;51.960;8.372;2023-01-26T13:40:57;4.60;99.90
20288;DHT22;10303;51.960;8.372;2023-01-26T13:43:36;4.60;99.90
20288;DHT22;10303;51.960;8.372;2023-01-26T13:46:30;4.70;99.90
20288;DHT22;10303;51.960;8.372;2023-01-26T13:49:01;4.80;99.90
20288;DHT22;10303;51.960;8.372;2023-01-26T13:51:32;4.70;99.90
20288;DHT22;10303;51.960;8.372;2023-01-26T13:54:05;4.70;99.90
20288;DHT22;10303;51.960;8.372;2023-01-26T13:56:57;4.60;99.90
20288;DHT22;10303;51.960;8.372;2023-01-26T13:59:25;4.60;99.90
20288;DHT22;10303;51.960;8.372;2023-01-26T14:01:53;4.80;99.90
20288;DHT22;10303;51.960;8.372;2023-01-26T14:04:25;4.70;99.90
20288;DHT22;10303;51.960;8.372;2023-01-26T14:07:01;4.80;99.90
20288;DHT22;10303;51.960;8.372;2023-01-26T14:09:33;4.80;99.90
20288;DHT22;10303;51.960;8.372;2023-01-26T14:12:16;4.90;99.90
20288;DHT22;10303;51.960;8.372;2023-01-26T14:14:55;4.90;99.90
20288;DHT22;10303;51.960;8.372;2023-01-26T14:17:47;4.90;99.90
20288;DHT22;10303;51.960;8.372;2023-01-26T14:20:32;4.90;99.90
20288;DHT22;10303;51.960;8.372;2023-01-26T14:23:13;4.90;99.90
20288;DHT22;10303;51.960;8.372;2023-01-26T14:28:58;4.80;99.90
20288;DHT22;10303;51.960;8.372;2023-01-26T14:31:26;4.80;99.90
20288;DHT22;10303;51.960;8.372;2023-01-26T14:33:56;4.70;99.90
20288;DHT22;10303;51.960;8.372;2023-01-26T14:36:28;4.90;99.90
20288;DHT22;10303;51.960;8.372;2023-01-26T14:39:17;4.90;99.90
20288;DHT22;10303;51.960;8.372;2023-01-26T14:41:45;4.80;99.90
20288;DHT22;10303;51.960;8.372;2023-01-26T14:44:13;5.00;99.90
20288;DHT22;10303;51.960;8.372;2023-01-26T14:47:03;4.90;99.90
20288;DHT22;10303;51.960;8.372;2023-01-26T14:50:04;4.90;99.90
20288;DHT22;10303;51.960;8.372;2023-01-26T14:52:47;4.80;99.90
20288;DHT22;10303;51.960;8.372;2023-01-26T14:58:00;4.90;99.90
20288;DHT22;10303;51.960;8.372;2023-01-26T15:00:34;5.10;99.90
20288;DHT22;10303;51.960;8.372;2023-01-26T15:03:22;5.20;99.90
20288;DHT22;10303;51.960;8.372;2023-01-26T15:08:39;5.00;99.90
20288;DHT22;10303;51.960;8.372;2023-01-26T15:11:06;4.90;99.90
20288;DHT22;10303;51.960;8.372;2023-01-26T15:14:29;5.00;99.90
20288;DHT22;10303;51.960;8.372;2023-01-26T15:16:57;5.10;99.90
20288;DHT22;10303;51.960;8.372;2023-01-26T15:19:25;5.10;99.90
20288;DHT22;10303;51.960;8.372;2023-01-26T15:21:55;5.00;99.90
20288;DHT22;10303;51.960;8.372;2023-01-26T15:24:21;5.00;99.90
20288;DHT22;10303;51.960;8.372;2023-01-26T15:26:47;5.00;99.90
20288;DHT22;10303;51.960;8.372;2023-01-26T15:31:56;5.00;99.90
20288;DHT22;10303;51.960;8.372;2023-01-26T15:34:39;5.00;99.90
20288;DHT22;10303;51.960;8.372;2023-01-26T15:37:31;5.00;99.90
20288;DHT22;10303;51.960;8.372;2023-01-26T15:39:59;5.10;99.90
20288;DHT22;10303;51.960;8.372;2023-01-26T15:42:26;5.10;99.90
20288;DHT22;10303;51.960;8.372;2023-01-26T15:44:54;5.10;99.90
20288;DHT22;10303;51.960;8.372;2023-01-26T15:47:21;5.30;99.90
20288;DHT22;10303;51.960;8.372;2023-01-26T15:49:47;5.20;99.90
20288;DHT22;10303;51.960;8.372;2023-01-26T15:52:21;5.10;99.90
20288;DHT22;10303;51.960;8.372;2023-01-26T15:54:50;5.20;99.90
20288;DHT22;10303;51.960;8.372;2023-01-26T15:57:18;5.20;99.90
20288;DHT22;10303;51.960;8.372;2023-01-26T15:59:44;5.20;99.90
20288;DHT22;10303;51.960;8.372;2023-01-26T16:02:17;5.30;99.90
20288;DHT22;10303;51.960;8.372;2023-01-26T16:04:45;5.40;99.90
20288;DHT22;10303;51.960;8.372;2023-01-26T16:07:13;5.40;99.90
20288;DHT22;10303;51.960;8.372;2023-01-26T16:09:41;5.40;99.90
20288;DHT22;10303;51.960;8.372;2023-01-26T16:12:17;5.40;99.90
20288;DHT22;10303;51.960;8.372;2023-01-26T16:14:44;5.40;99.90
20288;DHT22;10303;51.960;8.372;2023-01-26T16:17:14;5.40;99.90
20288;DHT22;10303;51.960;8.372;2023-01-26T16:19:42;5.60;99.90
20288;DHT22;10303;51.960;8.372;2023-01-26T16:22:10;5.50;99.90
20288;DHT22;10303;51.960;8.372;2023-01-26T16:24:38;5.50;99.90
20288;DHT22;10303;51.960;8.372;2023-01-26T16:27:05;5.50;99.90
20288;DHT22;10303;51.960;8.372;2023-01-26T16:29:32;5.80;99.90
20288;DHT22;10303;51.960;8.372;2023-01-26T16:31:59;5.50;99.90
20288;DHT22;10303;51.960;8.372;2023-01-26T16:34:26;5.80;99.90
20288;DHT22;10303;51.960;8.372;2023-01-26T16:36:52;5.60;99.90
20288;DHT22;10303;51.960;8.372;2023-01-26T16:39:20;5.60;99.90
20288;DHT22;10303;51.960;8.372;2023-01-26T16:41:46;5.60;99.90
20288;DHT22;10303;51.960;8.372;2023-01-26T16:44:14;5.80;99.90
20288;DHT22;10303;51.960;8.372;2023-01-26T16:46:46;5.60;99.90
20288;DHT22;10303;51.960;8.372;2023-01-26T16:49:13;5.70;99.90
20288;DHT22;10303;51.960;8.372;2023-01-26T16:51:40;5.60;99.90
20288;DHT22;10303;51.960;8.372;2023-01-26T16:54:09;5.70;99.90
20288;DHT22;10303;51.960;8.372;2023-01-26T16:56:35;5.70;99.90
20288;DHT22;10303;51.960;8.372;2023-01-26T16:59:01;5.70;99.90
20288;DHT22;10303;51.960;8.372;2023-01-26T17:01:32;5.70;99.90
20288;DHT22;10303;51.960;8.372;2023-01-26T17:04:01;6.00;99.90
20288;DHT22;10303;51.960;8.372;2023-01-26T17:06:28;5.70;99.90
20288;DHT22;10303;51.960;8.372;2023-01-26T17:08:54;5.70;99.90
20288;DHT22;10303;51.960;8.372;2023-01-26T17:11:25;5.70;99.90
20288;DHT22;10303;51.960;8.372;2023-01-26T17:13:53;5.70;99.90
20288;DHT22;10303;51.960;8.372;2023-01-26T17:16:26;5.80;99.90
20288;DHT22;10303;51.960;8.372;2023-01-26T17:18:59;5.70;99.90
20288;DHT22;10303;51.960;8.372;2023-01-26T17:21:25;5.80;99.90
20288;DHT22;10303;51.960;8.372;2023-01-26T17:23:55;5.80;99.90
20288;DHT22;10303;51.960;8.372;2023-01-26T17:26:23;5.70;99.90
20288;DHT22;10303;51.960;8.372;2023-01-26T17:28:52;5.70;99.90
20288;DHT22;10303;51.960;8.372;2023-01-26T17:31:20;5.80;99.90
20288;DHT22;10303;51.960;8.372;2023-01-26T17:33:49;5.70;99.90
20288;DHT22;10303;51.960;8.372;2023-01-26T17:36:16;5.90;99.90
20288;DHT22;10303;51.960;8.372;2023-01-26T17:38:43;5.90;99.90
20288;DHT22;10303;51.960;8.372;2023-01-26T17:41:09;5.90;99.90